Time;durP1;ratioP1;P1;durP2;ratioP2;P2;SDS_P1;SDS_P2;PMS_P1;PMS_P2;Temp;Humidity;BMP_temperature;BMP_pressure;BME280_temperature;BME280_humidity;BME280_pressure;Samples;Min_cycle;Max_cycle;Signal;HPM_P1;HPM_P2
2023/05/24 00:00:16;;;;;;;6.22;3.83;;;16.60;91.60;;;;;;10217941;28;20432;-72
2023/05/24 00:05:10;;;;;;;6.03;3.72;;;16.50;91.60;;;;;;10224116;27;20047;-64
2023/05/24 00:10:01;;;;;;;4.38;3.05;;;16.60;91.60;;;;;;10223678;28;20080;-67
2023/05/24 00:14:51;;;;;;;7.15;3.63;;;16.50;91.70;;;;;;10224977;27;20020;-64
2023/05/24 00:19:42;;;;;;;8.02;2.50;;;16.60;91.70;;;;;;10223773;28;20114;-70
2023/05/24 00:24:33;;;;;;;6.95;2.88;;;16.40;91.80;;;;;;10222680;28;20023;-72
2023/05/24 00:29:23;;;;;;;6.55;3.50;;;16.40;91.70;;;;;;10223020;28;20493;-67
2023/05/24 00:34:14;;;;;;;7.68;3.05;;;16.30;91.70;;;;;;10216849;28;20044;-64
2023/05/24 00:39:05;;;;;;;3.75;2.70;;;16.30;91.70;;;;;;10218937;28;20051;-65
2023/05/24 00:43:56;;;;;;;5.90;3.42;;;16.30;91.60;;;;;;10210049;27;20061;-65
2023/05/24 00:48:48;;;;;;;6.97;2.63;;;16.20;91.60;;;;;;10222113;28;20480;-67
2023/05/24 00:53:40;;;;;;;5.43;2.60;;;16.10;91.70;;;;;;10222358;28;20030;-63
2023/05/24 00:58:31;;;;;;;5.10;2.45;;;16.10;91.70;;;;;;10220178;27;20024;-64
2023/05/24 01:03:22;;;;;;;4.47;2.65;;;16.00;91.70;;;;;;10222395;28;20048;-63
2023/05/24 01:09:01;;;;;;;4.82;2.45;;;15.90;91.90;;;;;;10222066;28;20027;-63
2023/05/24 01:14:16;;;;;;;4.45;2.92;;;15.90;92.10;;;;;;10219015;27;20086;-69
2023/05/24 01:19:44;;;;;;;6.20;2.40;;;15.80;92.00;;;;;;10221676;28;20119;-67
2023/05/24 01:25:00;;;;;;;5.30;2.58;;;15.80;92.10;;;;;;10183583;28;20553;-65
2023/05/24 01:29:54;;;;;;;5.53;2.55;;;15.70;92.30;;;;;;10209586;28;20062;-66
2023/05/24 01:34:45;;;;;;;5.13;2.28;;;15.60;92.30;;;;;;10222182;28;20094;-65
2023/05/24 01:39:36;;;;;;;4.85;2.58;;;15.50;92.20;;;;;;10205453;27;20058;-63
2023/05/24 01:44:35;;;;;;;7.00;3.13;;;15.50;92.40;;;;;;10220509;28;20016;-62
2023/05/24 01:49:30;;;;;;;5.55;2.55;;;15.40;92.50;;;;;;10209346;28;20026;-63
2023/05/24 01:54:24;;;;;;;5.93;2.28;;;15.40;92.50;;;;;;10227929;27;20156;-63
2023/05/24 01:59:16;;;;;;;6.05;2.95;;;15.30;92.60;;;;;;10176967;28;20039;-60
2023/05/24 02:04:06;;;;;;;7.75;2.28;;;15.30;92.70;;;;;;10196571;28;20055;-61
2023/05/24 02:08:57;;;;;;;4.78;2.95;;;15.30;92.70;;;;;;10231259;28;20111;-65
2023/05/24 02:13:48;;;;;;;5.53;2.90;;;15.20;92.80;;;;;;10214375;28;20043;-72
2023/05/24 02:18:39;;;;;;;3.65;2.00;;;15.10;93.00;;;;;;10234503;27;20081;-77
2023/05/24 02:23:29;;;;;;;4.00;2.65;;;15.10;93.00;;;;;;10237399;27;20039;-69
2023/05/24 02:28:20;;;;;;;6.72;2.67;;;15.10;93.10;;;;;;10228311;28;20089;-75
2023/05/24 02:33:11;;;;;;;5.60;3.00;;;15.00;93.20;;;;;;10229255;28;20244;-62
2023/05/24 02:38:05;;;;;;;6.25;2.88;;;14.90;93.30;;;;;;10239746;27;20497;-67
2023/05/24 02:42:55;;;;;;;5.30;2.53;;;14.90;93.30;;;;;;10202405;28;20059;-62
2023/05/24 02:47:46;;;;;;;6.03;3.05;;;14.90;93.30;;;;;;10216790;28;20357;-68
2023/05/24 02:52:37;;;;;;;4.05;2.55;;;15.00;93.30;;;;;;10219029;27;20036;-62
2023/05/24 02:57:27;;;;;;;4.95;2.42;;;14.90;93.40;;;;;;10226458;28;20023;-69
2023/05/24 03:02:18;;;;;;;4.30;2.47;;;14.90;93.50;;;;;;10218741;28;20452;-74
2023/05/24 03:07:09;;;;;;;6.95;2.60;;;14.90;93.50;;;;;;10210681;28;20432;-71
2023/05/24 03:12:00;;;;;;;8.90;2.22;;;14.90;93.60;;;;;;10200379;28;20039;-70
2023/05/24 03:16:51;;;;;;;3.63;2.33;;;14.80;93.70;;;;;;10219297;28;20077;-74
2023/05/24 03:21:42;;;;;;;5.35;2.63;;;14.70;93.80;;;;;;10218071;27;20097;-69
2023/05/24 03:26:32;;;;;;;5.63;2.20;;;14.60;93.90;;;;;;10224788;28;20084;-62
2023/05/24 03:31:25;;;;;;;7.13;3.00;;;14.70;93.80;;;;;;10225222;28;20442;-65
2023/05/24 03:36:16;;;;;;;6.18;2.92;;;14.60;93.80;;;;;;10224663;27;20048;-69
2023/05/24 03:41:07;;;;;;;6.18;2.50;;;14.60;93.80;;;;;;10195885;28;20654;-63
2023/05/24 03:45:58;;;;;;;7.35;2.70;;;14.50;93.80;;;;;;10214734;27;20107;-62
2023/05/24 03:50:48;;;;;;;6.20;2.42;;;14.40;93.70;;;;;;10224460;28;20050;-64
2023/05/24 03:55:41;;;;;;;4.38;1.90;;;14.40;93.70;;;;;;10217555;28;20470;-69
2023/05/24 04:00:32;;;;;;;5.57;2.38;;;14.50;93.60;;;;;;10209959;27;20510;-63
2023/05/24 04:05:25;;;;;;;5.75;2.15;;;14.50;93.50;;;;;;10221119;28;20047;-65
2023/05/24 04:10:16;;;;;;;4.68;2.20;;;14.40;93.60;;;;;;10213211;28;20397;-61
2023/05/24 04:15:07;;;;;;;5.40;2.88;;;14.30;93.60;;;;;;10231752;27;20082;-61
2023/05/24 04:19:58;;;;;;;5.32;2.50;;;14.20;93.60;;;;;;10214713;28;20182;-61
2023/05/24 04:24:49;;;;;;;6.25;2.55;;;14.20;93.60;;;;;;10223661;28;20600;-62
2023/05/24 04:29:41;;;;;;;4.85;1.80;;;14.10;93.60;;;;;;10223323;27;20455;-61
2023/05/24 04:34:35;;;;;;;4.00;3.28;;;14.20;93.60;;;;;;10222167;28;20058;-63
2023/05/24 04:39:25;;;;;;;3.38;2.13;;;14.10;93.60;;;;;;10223027;28;20473;-61
2023/05/24 04:44:16;;;;;;;9.98;2.33;;;14.10;93.60;;;;;;10227839;27;20104;-63
2023/05/24 04:49:07;;;;;;;3.53;2.58;;;14.10;93.70;;;;;;10212369;28;20023;-67
2023/05/24 04:53:59;;;;;;;7.55;2.53;;;14.00;93.70;;;;;;10203732;28;20028;-62
2023/05/24 04:58:49;;;;;;;7.55;2.30;;;14.00;93.70;;;;;;10225144;27;20031;-63
2023/05/24 05:03:40;;;;;;;5.78;2.33;;;14.10;93.70;;;;;;10201760;28;20044;-67
2023/05/24 05:08:31;;;;;;;4.65;1.92;;;14.00;93.70;;;;;;10208452;27;20032;-65
2023/05/24 05:13:22;;;;;;;8.90;2.28;;;14.00;93.70;;;;;;10202883;28;20024;-61
2023/05/24 05:18:12;;;;;;;3.75;2.00;;;14.00;93.70;;;;;;10214139;28;20031;-64
2023/05/24 05:23:03;;;;;;;8.30;1.88;;;14.00;93.70;;;;;;10218551;28;20043;-66
2023/05/24 05:27:54;;;;;;;5.95;2.00;;;14.00;93.70;;;;;;10225783;27;20031;-62
2023/05/24 05:32:44;;;;;;;7.55;2.88;;;14.00;93.70;;;;;;10223838;27;20020;-61
2023/05/24 05:37:35;;;;;;;2.80;1.95;;;13.90;93.70;;;;;;10220854;28;20382;-66
2023/05/24 05:42:25;;;;;;;5.32;2.10;;;14.10;93.70;;;;;;10221044;27;20032;-67
2023/05/24 05:47:16;;;;;;;5.10;2.42;;;14.10;93.60;;;;;;10210792;28;20027;-68
2023/05/24 05:52:07;;;;;;;4.63;2.35;;;14.10;93.70;;;;;;10221570;28;20073;-65
2023/05/24 05:56:58;;;;;;;6.25;2.75;;;13.90;93.80;;;;;;10226018;27;20034;-76
2023/05/24 06:01:49;;;;;;;12.73;2.63;;;14.00;93.70;;;;;;10214032;28;20036;-76
2023/05/24 06:06:40;;;;;;;3.13;1.95;;;14.10;93.70;;;;;;10210320;28;20028;-67
2023/05/24 06:11:30;;;;;;;4.32;2.47;;;13.90;93.90;;;;;;10218069;28;20083;-64
2023/05/24 06:16:21;;;;;;;3.25;2.22;;;13.90;93.90;;;;;;10214929;28;20111;-63
2023/05/24 06:21:15;;;;;;;4.47;2.33;;;13.80;94.00;;;;;;10202874;28;20411;-65
2023/05/24 06:26:09;;;;;;;4.57;1.98;;;13.80;94.00;;;;;;10219876;28;20034;-62
2023/05/24 06:31:00;;;;;;;4.63;2.42;;;13.80;94.00;;;;;;10220329;28;20392;-61
2023/05/24 06:35:50;;;;;;;4.47;2.28;;;14.00;94.00;;;;;;10202087;28;20024;-62
2023/05/24 06:40:41;;;;;;;6.15;2.50;;;14.00;93.90;;;;;;10212370;28;20028;-63
2023/05/24 06:45:32;;;;;;;4.90;2.20;;;14.00;93.90;;;;;;10217075;28;20537;-62
2023/05/24 06:50:22;;;;;;;6.20;2.45;;;14.10;93.90;;;;;;10219445;28;20453;-73
2023/05/24 06:55:13;;;;;;;5.72;2.00;;;14.20;93.90;;;;;;10219056;28;20102;-62
2023/05/24 07:00:08;;;;;;;4.70;2.08;;;14.30;93.80;;;;;;10216227;28;20038;-65
2023/05/24 07:04:59;;;;;;;5.55;2.30;;;14.40;93.80;;;;;;10219250;27;20493;-68
2023/05/24 07:09:50;;;;;;;5.53;3.38;;;14.40;93.80;;;;;;10229862;28;20020;-76
2023/05/24 07:14:40;;;;;;;4.72;2.17;;;14.70;93.70;;;;;;10217430;28;20029;-71
2023/05/24 07:19:33;;;;;;;8.95;2.42;;;14.70;93.80;;;;;;10231114;28;20028;-62
2023/05/24 07:24:24;;;;;;;6.10;2.78;;;14.70;93.80;;;;;;10226021;28;20023;-61
2023/05/24 07:29:15;;;;;;;3.83;1.90;;;14.70;93.80;;;;;;10225116;28;20012;-62
2023/05/24 07:34:06;;;;;;;7.82;2.75;;;14.70;93.80;;;;;;10230877;27;20032;-61
2023/05/24 07:38:57;;;;;;;6.55;2.90;;;14.60;93.80;;;;;;10225586;28;20065;-61
2023/05/24 07:43:48;;;;;;;8.15;2.80;;;14.70;93.70;;;;;;10215990;28;20031;-62
2023/05/24 07:48:38;;;;;;;7.05;3.10;;;14.50;93.70;;;;;;10224856;28;20455;-65
2023/05/24 07:53:29;;;;;;;4.68;2.40;;;14.60;93.70;;;;;;10225723;28;20019;-67
2023/05/24 07:58:22;;;;;;;7.35;2.53;;;14.60;93.60;;;;;;10222475;28;20028;-61
2023/05/24 08:03:14;;;;;;;7.57;2.85;;;14.60;93.60;;;;;;10206861;28;20039;-61
2023/05/24 08:08:04;;;;;;;3.60;2.10;;;14.60;93.60;;;;;;10223594;28;20072;-62
2023/05/24 08:12:55;;;;;;;9.65;2.95;;;14.80;93.40;;;;;;10225667;28;20019;-74
2023/05/24 08:17:46;;;;;;;9.38;2.45;;;14.70;93.50;;;;;;10237304;28;20064;-65
2023/05/24 08:22:37;;;;;;;7.72;2.55;;;14.80;93.40;;;;;;10235133;28;20440;-63
2023/05/24 08:27:29;;;;;;;4.70;2.60;;;14.80;93.40;;;;;;10229654;28;20019;-61
2023/05/24 08:32:20;;;;;;;12.52;3.17;;;14.90;93.40;;;;;;10242951;28;20270;-68
2023/05/24 08:37:12;;;;;;;7.50;2.85;;;15.20;93.20;;;;;;10228726;28;20084;-64
2023/05/24 08:42:05;;;;;;;6.05;2.65;;;15.40;93.10;;;;;;10227179;28;20058;-64
2023/05/24 08:46:57;;;;;;;7.18;2.70;;;15.40;93.00;;;;;;10205351;28;20257;-61
2023/05/24 08:51:48;;;;;;;8.60;2.50;;;15.50;92.90;;;;;;10220255;28;20059;-61
2023/05/24 08:56:40;;;;;;;7.07;2.22;;;15.50;92.90;;;;;;10205370;28;20463;-64
2023/05/24 09:01:31;;;;;;;4.57;2.60;;;15.40;92.80;;;;;;10175775;28;1288676;-63
2023/05/24 09:06:24;;;;;;;7.93;2.13;;;15.50;92.70;;;;;;10221382;28;20023;-62
2023/05/24 09:11:15;;;;;;;5.70;2.13;;;15.60;92.70;;;;;;10230005;27;20023;-65
2023/05/24 09:16:06;;;;;;;6.00;2.25;;;15.70;92.50;;;;;;10221326;28;20522;-70
2023/05/24 09:20:57;;;;;;;8.10;3.17;;;15.90;92.40;;;;;;10198487;28;20028;-62
2023/05/24 09:25:49;;;;;;;7.30;2.42;;;16.30;92.30;;;;;;10207488;27;20031;-62
2023/05/24 09:30:43;;;;;;;7.60;2.45;;;16.20;92.10;;;;;;10228148;28;20035;-62
2023/05/24 09:35:35;;;;;;;6.95;3.03;;;16.10;91.80;;;;;;10221553;28;20027;-69
2023/05/24 09:40:27;;;;;;;5.20;2.10;;;16.10;91.60;;;;;;10225165;28;20047;-70
2023/05/24 09:45:17;;;;;;;7.95;2.75;;;16.20;91.60;;;;;;10225020;28;20026;-64
2023/05/24 09:50:13;;;;;;;7.70;3.15;;;16.60;91.40;;;;;;10229270;27;20090;-61
2023/05/24 09:55:14;;;;;;;8.25;2.97;;;17.00;90.70;;;;;;10230261;27;20027;-62
2023/05/24 10:00:16;;;;;;;5.60;2.42;;;17.30;90.30;;;;;;10214016;28;20035;-65
2023/05/24 10:05:10;;;;;;;5.28;2.28;;;17.10;90.60;;;;;;10219870;28;20130;-62
2023/05/24 10:10:03;;;;;;;8.75;2.28;;;16.70;90.40;;;;;;10235776;27;20177;-61
2023/05/24 10:14:56;;;;;;;8.75;2.47;;;16.70;90.10;;;;;;10219559;28;20030;-61
2023/05/24 10:19:46;;;;;;;8.60;3.08;;;16.50;89.80;;;;;;10226764;28;20035;-65
2023/05/24 10:24:46;;;;;;;7.47;2.22;;;16.50;89.20;;;;;;10201453;28;20110;-67
2023/05/24 10:29:45;;;;;;;7.15;2.50;;;16.40;89.50;;;;;;10218384;28;20506;-68
2023/05/24 10:34:37;;;;;;;5.70;2.38;;;16.50;88.80;;;;;;10230010;27;20088;-62
2023/05/24 10:39:28;;;;;;;7.47;2.13;;;16.60;88.50;;;;;;10226765;28;20497;-61
2023/05/24 10:44:19;;;;;;;4.30;2.13;;;16.60;88.10;;;;;;10208964;28;20046;-63
2023/05/24 10:49:13;;;;;;;8.60;3.08;;;16.40;88.10;;;;;;10229547;27;20020;-61
2023/05/24 10:54:34;;;;;;;8.10;3.03;;;16.30;88.20;;;;;;10226891;28;20074;-64
2023/05/24 10:59:38;;;;;;;6.72;3.13;;;16.40;88.00;;;;;;10206308;28;20076;-63
2023/05/24 11:04:35;;;;;;;6.40;2.50;;;16.60;88.10;;;;;;10232428;27;20043;-65
2023/05/24 11:09:26;;;;;;;6.15;2.03;;;16.80;87.60;;;;;;10225358;27;20031;-64
2023/05/24 11:14:23;;;;;;;7.18;2.38;;;17.00;87.40;;;;;;10225068;28;20481;-64
2023/05/24 11:19:22;;;;;;;5.63;2.13;;;17.20;87.50;;;;;;10197432;27;20289;-64
2023/05/24 11:24:19;;;;;;;4.40;2.05;;;17.30;87.50;;;;;;10213107;27;20165;-61
2023/05/24 11:29:12;;;;;;;6.13;2.40;;;17.40;86.50;;;;;;10227418;28;20560;-63
2023/05/24 11:34:03;;;;;;;6.40;2.38;;;17.50;86.40;;;;;;10228326;27;20023;-61
2023/05/24 11:38:54;;;;;;;4.90;2.03;;;17.60;86.10;;;;;;10225152;28;20027;-60
2023/05/24 11:43:45;;;;;;;5.35;2.05;;;17.80;86.00;;;;;;10217831;27;20323;-65
2023/05/24 11:48:35;;;;;;;10.57;2.60;;;18.10;85.90;;;;;;10227063;27;20031;-63
2023/05/24 11:53:26;;;;;;;5.00;2.00;;;18.30;85.20;;;;;;10203712;28;20031;-62
2023/05/24 11:58:43;;;;;;;3.53;1.90;;;18.40;84.80;;;;;;10210700;27;20023;-64
2023/05/24 12:03:34;;;;;;;7.28;2.33;;;18.60;82.80;;;;;;10207733;28;20040;-66
2023/05/24 12:08:25;;;;;;;5.03;1.65;;;18.70;82.30;;;;;;10224655;28;20024;-61
2023/05/24 12:13:24;;;;;;;4.50;2.53;;;18.80;81.20;;;;;;10217230;27;20024;-61
2023/05/24 12:18:19;;;;;;;5.07;1.90;;;19.20;81.20;;;;;;10220024;28;20025;-61
2023/05/24 12:23:10;;;;;;;4.70;1.83;;;19.40;80.60;;;;;;10222469;28;20454;-61
2023/05/24 12:28:02;;;;;;;4.82;2.08;;;19.60;80.60;;;;;;10225140;27;20115;-66
2023/05/24 12:32:53;;;;;;;6.05;2.22;;;19.90;81.00;;;;;;10220699;28;20023;-62
2023/05/24 12:37:44;;;;;;;7.20;2.03;;;20.30;80.90;;;;;;10223033;28;20023;-62
2023/05/24 12:42:36;;;;;;;7.05;1.90;;;20.60;80.30;;;;;;10222232;28;20043;-65
2023/05/24 12:47:26;;;;;;;10.15;2.20;;;20.90;80.20;;;;;;10221750;28;20019;-64
2023/05/24 12:52:17;;;;;;;7.32;2.13;;;20.90;79.80;;;;;;10206486;28;20172;-61
2023/05/24 12:57:08;;;;;;;6.65;2.25;;;21.30;79.10;;;;;;10228776;27;20477;-61
2023/05/24 13:01:58;;;;;;;3.55;1.48;;;22.10;77.00;;;;;;10221451;27;20409;-61
2023/05/24 13:06:49;;;;;;;2.97;1.80;;;23.70;75.20;;;;;;10223240;27;20444;-61
2023/05/24 13:11:39;;;;;;;4.70;1.85;;;24.40;73.30;;;;;;10223293;27;20047;-63
2023/05/24 13:16:31;;;;;;;7.43;2.25;;;25.00;71.00;;;;;;10222182;27;20027;-61
2023/05/24 13:21:22;;;;;;;3.80;2.20;;;25.00;69.80;;;;;;10221282;28;20505;-63
2023/05/24 13:26:13;;;;;;;3.45;1.92;;;25.90;68.20;;;;;;10227129;27;20193;-63
2023/05/24 13:31:03;;;;;;;3.60;1.40;;;25.50;66.90;;;;;;10224487;27;20359;-63
2023/05/24 13:35:54;;;;;;;5.53;1.70;;;26.30;66.70;;;;;;10220187;28;20019;-62
2023/05/24 13:40:45;;;;;;;2.28;1.45;;;27.40;64.90;;;;;;10220415;27;20020;-62
2023/05/24 13:45:36;;;;;;;5.60;1.40;;;27.10;64.40;;;;;;10218691;28;20088;-62
2023/05/24 13:50:26;;;;;;;8.30;1.92;;;27.10;63.10;;;;;;10220866;28;20114;-62
2023/05/24 13:55:17;;;;;;;5.75;1.60;;;27.20;61.50;;;;;;10221328;27;20080;-61
2023/05/24 14:00:08;;;;;;;4.05;1.95;;;27.70;60.60;;;;;;10213360;28;20096;-62
2023/05/24 14:04:59;;;;;;;5.28;1.60;;;27.40;59.10;;;;;;10223886;27;20212;-61
2023/05/24 14:09:49;;;;;;;3.70;1.55;;;27.90;58.60;;;;;;10220600;27;20238;-64
2023/05/24 14:14:41;;;;;;;4.32;1.67;;;27.60;57.40;;;;;;10219803;28;20028;-63
2023/05/24 14:19:33;;;;;;;5.22;1.67;;;27.60;56.60;;;;;;10220792;28;20026;-61
2023/05/24 14:24:24;;;;;;;;;;;28.30;55.90;;;;;;10202019;28;20119;-61
2023/05/24 14:29:15;;;;;;;2.10;1.20;;;27.60;55.20;;;;;;10219641;28;19991;-61
2023/05/24 14:34:05;;;;;;;2.97;1.30;;;28.30;55.60;;;;;;10220804;28;20027;-62
2023/05/24 14:38:56;;;;;;;5.80;1.77;;;27.80;55.00;;;;;;10219541;28;20023;-62
2023/05/24 14:43:46;;;;;;;4.03;1.45;;;27.10;54.70;;;;;;10209618;28;20031;-67
2023/05/24 14:48:40;;;;;;;4.40;1.40;;;27.40;54.30;;;;;;10206986;28;20045;-61
2023/05/24 14:53:30;;;;;;;4.55;1.95;;;27.60;53.30;;;;;;10218658;28;20011;-62
2023/05/24 14:58:21;;;;;;;4.68;1.98;;;27.40;52.50;;;;;;10196829;28;20504;-62
2023/05/24 15:03:13;;;;;;;4.05;1.92;;;27.00;52.20;;;;;;10199119;28;20414;-62
2023/05/24 15:08:04;;;;;;;2.17;1.50;;;27.60;51.60;;;;;;10219119;28;20604;-61
2023/05/24 15:12:55;;;;;;;2.65;1.27;;;27.20;50.70;;;;;;10218198;28;20506;-63
2023/05/24 15:17:46;;;;;;;2.70;1.50;;;27.30;50.30;;;;;;10219219;28;20030;-67
2023/05/24 15:22:37;;;;;;;4.18;1.52;;;27.20;50.70;;;;;;10224647;28;20119;-64
2023/05/24 15:27:27;;;;;;;3.97;1.30;;;27.70;50.50;;;;;;10225994;28;20022;-61
2023/05/24 15:32:18;;;;;;;3.97;1.55;;;27.50;50.40;;;;;;10231047;27;20388;-62
2023/05/24 15:37:09;;;;;;;6.20;1.50;;;28.00;49.50;;;;;;10225123;28;20016;-62
2023/05/24 15:41:59;;;;;;;2.97;1.48;;;28.30;49.20;;;;;;10215916;28;20301;-64
2023/05/24 15:46:50;;;;;;;3.90;1.80;;;29.00;48.70;;;;;;10235285;27;20428;-64
2023/05/24 15:51:41;;;;;;;4.55;2.45;;;28.60;48.80;;;;;;10224629;28;20489;-62
2023/05/24 15:56:32;;;;;;;5.32;1.70;;;29.70;48.40;;;;;;10225362;27;20038;-61
2023/05/24 16:01:22;;;;;;;3.72;2.30;;;29.90;48.00;;;;;;10221521;27;20047;-61
2023/05/24 16:06:13;;;;;;;4.38;1.42;;;30.30;47.90;;;;;;10219547;28;20384;-62
2023/05/24 16:11:07;;;;;;;3.63;2.47;;;30.60;47.20;;;;;;10230008;27;20228;-63
2023/05/24 16:15:57;;;;;;;2.78;1.80;;;31.40;46.50;;;;;;10214945;27;20020;-62
2023/05/24 16:20:49;;;;;;;4.93;1.90;;;31.30;45.90;;;;;;10221448;28;20031;-65
2023/05/24 16:25:40;;;;;;;3.97;1.60;;;32.00;45.30;;;;;;10225861;27;20030;-65
2023/05/24 16:30:31;;;;;;;2.88;1.58;;;30.30;45.50;;;;;;10222695;28;20031;-62
2023/05/24 16:35:21;;;;;;;4.05;1.63;;;31.10;45.70;;;;;;10223045;28;20373;-62
2023/05/24 16:40:12;;;;;;;6.85;1.60;;;31.10;44.70;;;;;;10224317;27;20504;-62
2023/05/24 16:45:03;;;;;;;4.05;1.60;;;31.10;44.60;;;;;;10202002;28;20273;-63
2023/05/24 16:49:54;;;;;;;3.60;1.67;;;31.00;44.60;;;;;;10222339;28;20382;-65
2023/05/24 16:54:44;;;;;;;2.63;1.83;;;30.90;44.40;;;;;;10227138;27;20023;-65
2023/05/24 16:59:37;;;;;;;3.17;1.67;;;30.50;44.60;;;;;;10218281;28;20384;-64
2023/05/24 17:04:28;;;;;;;3.22;1.33;;;30.30;44.40;;;;;;10221258;28;20089;-63
2023/05/24 17:09:19;;;;;;;3.60;1.60;;;30.30;44.50;;;;;;10223012;27;20026;-63
2023/05/24 17:14:09;;;;;;;3.88;1.20;;;29.70;44.20;;;;;;10221529;28;20032;-62
2023/05/24 17:19:00;;;;;;;3.38;1.80;;;29.20;44.60;;;;;;10219049;28;20024;-63
2023/05/24 17:23:51;;;;;;;3.72;2.35;;;27.40;45.60;;;;;;10221470;28;20035;-61
2023/05/24 17:28:43;;;;;;;5.18;1.92;;;27.80;45.20;;;;;;10221227;28;20451;-65
2023/05/24 17:33:34;;;;;;;2.88;1.40;;;27.40;45.50;;;;;;10221067;28;20568;-62
2023/05/24 17:38:25;;;;;;;5.00;2.30;;;27.40;45.60;;;;;;10227527;27;20147;-64
2023/05/24 17:43:15;;;;;;;4.82;2.13;;;26.90;46.00;;;;;;10193259;28;20039;-66
2023/05/24 17:48:06;;;;;;;3.47;1.92;;;26.30;46.80;;;;;;10219214;28;20031;-62
2023/05/24 17:52:58;;;;;;;7.97;2.25;;;25.10;47.70;;;;;;10220730;27;20152;-63
2023/05/24 17:57:49;;;;;;;4.22;1.77;;;22.90;49.60;;;;;;10219439;28;20026;-62
2023/05/24 18:02:40;;;;;;;6.93;2.38;;;21.30;51.10;;;;;;10211988;28;20054;-62
2023/05/24 18:07:30;;;;;;;8.07;3.50;;;20.70;51.60;;;;;;10218327;28;20030;-61
2023/05/24 18:12:21;;;;;;;6.70;2.10;;;20.30;52.10;;;;;;10212184;28;20040;-62
2023/05/24 18:17:12;;;;;;;5.93;2.22;;;20.00;52.70;;;;;;10212600;28;20053;-64
2023/05/24 18:22:03;;;;;;;8.27;3.35;;;19.80;53.30;;;;;;10220268;28;20130;-64
2023/05/24 18:26:53;;;;;;;8.77;4.32;;;19.40;54.20;;;;;;10201531;28;20063;-65
2023/05/24 18:31:45;;;;;;;9.35;2.90;;;19.20;54.90;;;;;;10219004;28;20428;-63
2023/05/24 18:36:35;;;;;;;7.18;2.22;;;19.10;55.70;;;;;;10204126;28;20031;-68
2023/05/24 18:41:26;;;;;;;7.40;2.83;;;18.90;57.20;;;;;;10218915;28;20413;-62
2023/05/24 18:46:17;;;;;;;6.35;2.40;;;18.80;57.70;;;;;;10220387;28;20185;-64
2023/05/24 18:51:08;;;;;;;6.82;2.35;;;18.40;58.40;;;;;;10221076;28;20034;-61
2023/05/24 18:55:59;;;;;;;4.95;2.50;;;18.40;59.10;;;;;;10224134;28;20106;-62
2023/05/24 19:00:49;;;;;;;8.90;1.65;;;18.30;59.30;;;;;;10226166;27;20104;-62
2023/05/24 19:05:40;;;;;;;4.13;1.67;;;18.20;59.50;;;;;;10226239;28;20048;-62
2023/05/24 19:10:31;;;;;;;4.38;2.33;;;18.10;60.20;;;;;;10225879;28;20027;-64
2023/05/24 19:15:22;;;;;;;6.40;1.70;;;17.90;60.80;;;;;;10227854;27;20023;-64
2023/05/24 19:20:12;;;;;;;4.72;1.85;;;17.80;61.30;;;;;;10224242;28;20031;-63
2023/05/24 19:25:03;;;;;;;5.13;2.25;;;17.80;61.40;;;;;;10226210;28;20023;-61
2023/05/24 19:29:54;;;;;;;5.10;2.17;;;17.70;61.80;;;;;;10226031;27;20030;-70
2023/05/24 19:34:45;;;;;;;4.63;1.98;;;17.80;61.60;;;;;;10225775;28;20024;-67
2023/05/24 19:39:36;;;;;;;5.95;2.00;;;17.70;62.10;;;;;;10223911;28;20030;-62
2023/05/24 19:44:28;;;;;;;6.80;2.72;;;17.60;62.90;;;;;;10226016;28;20046;-63
2023/05/24 19:49:19;;;;;;;6.90;2.13;;;17.70;62.60;;;;;;10224969;28;20519;-65
2023/05/24 19:54:09;;;;;;;7.63;2.60;;;17.90;62.30;;;;;;10224340;28;20034;-61
2023/05/24 19:59:00;;;;;;;8.60;3.42;;;17.80;62.70;;;;;;10227481;27;20076;-61
2023/05/24 20:03:51;;;;;;;5.70;2.20;;;17.70;62.90;;;;;;10223751;28;20048;-63
2023/05/24 20:08:42;;;;;;;5.35;2.50;;;17.70;63.30;;;;;;10223083;28;20106;-64
2023/05/24 20:13:33;;;;;;;4.50;2.42;;;17.60;63.50;;;;;;10222898;28;20032;-63
2023/05/24 20:18:23;;;;;;;4.07;2.45;;;17.60;63.50;;;;;;10223447;28;20389;-68
2023/05/24 20:23:14;;;;;;;16.42;2.75;;;17.70;63.50;;;;;;10207545;27;20502;-64
2023/05/24 20:28:05;;;;;;;6.53;2.50;;;17.60;63.90;;;;;;10226362;27;20270;-63
2023/05/24 20:32:55;;;;;;;5.40;2.08;;;17.40;64.50;;;;;;10222480;28;20024;-63
2023/05/24 20:37:46;;;;;;;8.80;2.55;;;17.20;65.20;;;;;;10223248;28;20112;-64
2023/05/24 20:42:37;;;;;;;8.38;1.95;;;17.20;65.30;;;;;;10220384;27;20040;-61
2023/05/24 20:47:29;;;;;;;6.72;2.13;;;17.20;65.40;;;;;;10220499;28;20062;-63
2023/05/24 20:52:20;;;;;;;9.93;2.55;;;17.00;65.80;;;;;;10204205;27;20023;-62
2023/05/24 20:57:10;;;;;;;3.15;2.15;;;17.00;66.00;;;;;;10225429;27;20108;-62
2023/05/24 21:02:04;;;;;;;4.30;2.20;;;16.90;66.50;;;;;;10216017;28;20429;-62
2023/05/24 21:06:55;;;;;;;7.05;3.38;;;16.80;66.80;;;;;;10222270;27;20393;-64
2023/05/24 21:11:45;;;;;;;5.25;2.78;;;16.60;67.70;;;;;;10222010;28;20031;-64
2023/05/24 21:16:36;;;;;;;9.20;3.03;;;16.50;67.80;;;;;;10218344;28;20032;-67
2023/05/24 21:21:27;;;;;;;4.72;2.30;;;16.50;67.80;;;;;;10222590;27;20047;-67
2023/05/24 21:26:17;;;;;;;5.90;2.00;;;16.60;67.70;;;;;;10221376;28;20019;-63
2023/05/24 21:31:08;;;;;;;6.35;3.05;;;16.60;67.60;;;;;;10221112;28;20592;-62
2023/05/24 21:35:59;;;;;;;3.80;2.00;;;16.50;68.10;;;;;;10217846;28;20035;-62
2023/05/24 21:40:49;;;;;;;3.83;2.33;;;16.30;68.70;;;;;;10200898;28;20050;-62
2023/05/24 21:45:41;;;;;;;8.75;2.38;;;16.30;68.60;;;;;;10217936;28;20020;-62
2023/05/24 21:50:33;;;;;;;5.82;1.83;;;16.30;68.70;;;;;;10225986;27;20027;-62
2023/05/24 21:55:23;;;;;;;5.45;1.92;;;16.30;68.70;;;;;;10201777;28;20425;-61
2023/05/24 22:00:15;;;;;;;6.03;2.33;;;16.30;68.90;;;;;;10211910;28;20038;-64
2023/05/24 22:05:06;;;;;;;5.43;1.83;;;16.20;68.90;;;;;;10227595;27;20043;-65
2023/05/24 22:09:57;;;;;;;4.78;2.67;;;16.20;69.20;;;;;;10221310;28;20024;-62
2023/05/24 22:14:48;;;;;;;3.85;2.00;;;16.10;69.30;;;;;;10219439;28;20385;-62
2023/05/24 22:19:40;;;;;;;3.60;1.90;;;16.20;69.40;;;;;;10230888;28;20030;-61
2023/05/24 22:24:30;;;;;;;4.97;2.00;;;16.10;69.40;;;;;;10220298;28;20439;-62
2023/05/24 22:29:21;;;;;;;6.18;3.10;;;16.20;69.30;;;;;;10221789;28;20046;-62
2023/05/24 22:34:12;;;;;;;4.28;2.58;;;16.10;69.50;;;;;;10223057;28;20102;-62
2023/05/24 22:39:03;;;;;;;4.85;2.22;;;16.20;69.50;;;;;;10227404;28;20466;-62
2023/05/24 22:43:55;;;;;;;6.47;2.28;;;16.00;69.80;;;;;;10224997;28;20114;-61
2023/05/24 22:48:48;;;;;;;6.45;2.22;;;16.10;69.90;;;;;;10224955;28;20431;-63
2023/05/24 22:53:39;;;;;;;5.13;2.45;;;16.10;70.10;;;;;;10208424;28;20504;-66
2023/05/24 22:58:29;;;;;;;9.02;2.05;;;15.90;70.50;;;;;;10224318;27;20027;-62
2023/05/24 23:03:20;;;;;;;5.25;2.20;;;16.00;70.40;;;;;;10231414;27;20068;-62
2023/05/24 23:08:14;;;;;;;5.35;2.20;;;15.90;70.80;;;;;;10227016;28;20027;-62
2023/05/24 23:13:05;;;;;;;5.90;1.90;;;15.80;71.00;;;;;;10229084;27;20607;-62
2023/05/24 23:17:55;;;;;;;6.07;2.13;;;15.90;71.00;;;;;;10226913;27;20320;-63
2023/05/24 23:22:47;;;;;;;4.70;2.20;;;15.90;71.00;;;;;;10225995;28;20643;-63
2023/05/24 23:27:39;;;;;;;6.55;2.03;;;15.90;71.20;;;;;;10227603;27;20030;-62
2023/05/24 23:32:30;;;;;;;5.20;2.17;;;15.80;71.50;;;;;;10207827;28;20024;-62
2023/05/24 23:37:20;;;;;;;5.15;2.30;;;15.60;71.90;;;;;;10207387;28;20429;-63
2023/05/24 23:42:11;;;;;;;4.80;2.80;;;15.60;71.90;;;;;;10227615;27;20034;-63
2023/05/24 23:47:02;;;;;;;4.47;2.05;;;15.50;72.10;;;;;;10221206;28;20024;-66
2023/05/24 23:51:52;;;;;;;3.55;2.00;;;15.30;72.60;;;;;;10206620;28;20034;-61
2023/05/24 23:56:43;;;;;;;5.95;2.28;;;15.30;72.30;;;;;;10228021;27;20123;-66
